Weather observations for the past three days for
Albion Municipal Airport
Imperial (Metric)
Date Time (cdt) Wind (mph) Vis. (mi.) Weather Sky Cond. Temperature (ºF) Relative Humidity Wind Chill (°F) Heat Index (°F) Pressure Precipitation (in)
Air Dwpt 6 hour altimeter (in) sea level (mb) 1 hr 3 hr 6 hr
Max. Min.
03 22:35 Calm 10.00 Fair CLR 77 72.5 86% 78 29.83 0.0
03 22:15 Calm 10.00 Fair CLR 77 72.7 87% 78 29.83 0.0
03 21:55 Calm 10.00 Fair CLR 79.9 71.1 75% 83 29.83 0.0
03 21:35 Calm 10.00 Fair CLR 77.9 72.1 83% 80 29.82 0.0
03 21:15 Calm 10.00 Fair CLR 80.1 73 79% 84 29.82 0.0
03 20:55 Calm 10.00 Fair CLR 80.4 71.2 74% 84 29.82 0.0
03 20:35 E 6 10.00 Fair CLR 82 70.9 69% 86 29.81 0.0
03 20:15 Calm 10.00 Fair CLR 81.5 72.1 73% 86 29.81 0.0
03 19:55 Calm 10.00 Fair CLR 85.6 72.9 66% 92 29.8 0.0
03 19:35 Calm 10.00 Fair CLR 89.1 71.1 55% 95 29.8 0.0
03 19:15 Calm 10.00 Fair CLR 89.2 71.6 56% 96 29.8 0.0
03 18:55 Calm 10.00 Fair CLR 90.5 70.5 91.8 88.5 52% 96 29.8 0.0
03 18:35 Calm 10.00 Fair CLR 90.7 70.5 52% 97 29.8 0.0
03 18:15 SW 3 10.00 Fair CLR 91.4 69.8 49% 97 29.79 0.0
03 17:55 SW 5 10.00 Fair CLR 91.6 68.5 47% 96 29.79 0.0
03 17:35 SW 3 10.00 Fair CLR 91.8 69.1 48% 97 29.79 0.0
03 17:15 SW 6 10.00 Fair CLR 91.6 68.9 48% 96 29.79 0.0
03 16:55 SW 3 10.00 Fair CLR 91.6 68.9 48% 96 29.79 0.0
03 16:35 SW 3 10.00 Fair CLR 91 68.5 48% 95 29.79 0.0
03 16:15 S 7 10.00 Fair CLR 91.2 68.2 47% 95 29.8 0.0
03 15:55 S 8 10.00 Fair CLR 91 68.4 47% 95 29.8 0.0
03 15:35 S 9 10.00 Fair CLR 90.7 68 47% 95 29.81 0.0
03 15:15 SW 7 10.00 Fair CLR 90.5 68.9 49% 95 29.81 0.0
03 14:55 SW 8 10.00 Fair CLR 89.6 67.1 48% 93 29.81 0.0
03 14:35 SW 6 10.00 Fair CLR 90.1 66.6 46% 93 29.82 0.0
03 14:15 S 9 10.00 Fair CLR 89.8 66.2 46% 92 29.82 0.0
03 13:55 S 10 10.00 Fair CLR 90 67.3 47% 93 29.82 0.0
03 13:15 SW 9 10.00 Fair CLR 89.6 67.5 48% 93 29.82 0.0
03 12:55 SW 7 10.00 Fair CLR 88.2 65.1 88.7 72 46% 90 29.83 0.0
03 12:35 SW 12 10.00 Fair CLR 88.7 66.2 47% 91 29.84 0.0
03 12:15 SW 10 10.00 Fair CLR 87.6 65.1 47% 90 29.83 0.0
03 11:55 SW 10 10.00 Fair CLR 87.8 65.3 47% 90 29.83 0.0
03 11:35 S 12 10.00 Fair CLR 87.1 65.8 49% 89 29.83 0.0
03 11:15 S 12 10.00 Fair CLR 86.4 65.5 50% 88 29.82 0.0
03 10:55 S 9 10.00 Fair CLR 85.1 64.9 51% 87 29.82 0.0
03 10:35 S 6 10.00 Fair CLR 84.2 65.8 54% 86 29.83 0.0
03 10:15 S 6 10.00 Fair CLR 83.1 65.5 55% 85 29.83 0.0
03 09:55 S 6 10.00 Fair CLR 81.5 65.8 59% 84 29.82 0.0
03 09:35 S 5 10.00 Thunderstorm in Vicinity CLR 80.2 65.3 60% 82 29.83 0.0
03 09:15 S 5 10.00 Fair CLR 79 64.6 61% 81 29.84 0.0
03 08:55 SW 3 10.00 Fair CLR 76.6 63.9 65% 78 29.84 0.0
03 08:35 SW 3 10.00 Fair CLR 75.2 63.5 67% 77 29.84 0.0
03 08:15 Calm 10.00 Fair CLR 73.8 63.3 70% 29.84 0.0
03 07:55 Calm 10.00 Fair CLR 72.5 63.5 73% 29.84 0.0
03 07:35 Calm 10.00 Fair CLR 72.1 63 73% 29.83 0.0
03 07:15 SW 6 10.00 Fair CLR 73.4 62.8 70% 29.82 0.0
03 06:55 SW 8 G 17 10.00 Fair CLR 73.4 63.1 75.2 73 70% 29.83 0.0
03 06:35 SW 5 10.00 Fair CLR 73.8 63.5 70% 29.8 0.0
03 06:15 SW 6 10.00 Fair CLR 73.8 63.5 70% 29.8 0.0
03 05:55 S 8 10.00 Fair CLR 74.1 63.7 70% 29.8 0.0
03 05:35 S 9 10.00 Fair CLR 73.9 63.9 71% 29.8 0.0
03 05:15 S 7 10.00 Fair CLR 73.6 64.2 73% 29.8 0.0
03 04:55 S 5 10.00 Fair CLR 73.8 64.2 72% 29.8 0.0
03 04:35 S 6 10.00 Fair CLR 73.8 64.4 73% 29.8 0.0
03 04:15 S 5 10.00 Fair CLR 73.9 64.4 72% 29.8 0.0
03 03:55 S 3 10.00 Fair CLR 74.3 64.4 71% 29.8 0.0
03 03:35 S 6 10.00 Fair CLR 75.2 64.4 69% 77 29.8 0.0
03 03:15 S 5 10.00 Fair CLR 74.3 64.4 71% 29.8 0.0
03 02:55 S 6 10.00 Fair CLR 73.8 64.8 74% 29.8 0.0
03 02:35 SE 6 10.00 Fair CLR 74.3 64.6 72% 29.81 0.0
03 02:15 SE 5 10.00 Fair CLR 74.3 64.6 72% 29.81 0.0
03 01:55 SE 6 10.00 Fair CLR 74.5 65.1 73% 29.82 0.0
03 01:35 SE 6 10.00 Fair CLR 75 65.5 72% 76 29.82 0.0
03 01:15 SE 6 10.00 Fair CLR 75.2 65.7 72% 77 29.82 0.0
03 00:55 SE 6 10.00 Fair CLR 75.4 65.8 88.2 75 72% 77 29.82 0.0
03 00:35 SE 6 10.00 Fair CLR 75.2 66.2 74% 77 29.82 0.0
03 00:15 SE 5 10.00 Fair CLR 75.7 66.2 72% 77 29.82 0.0
02 23:55 SE 5 10.00 Fair CLR 75.4 67.1 76% 77 29.82 0.0
02 23:35 SE 6 10.00 Fair CLR 76.3 68.2 76% 78 29.82 0.0
02 23:15 SE 7 10.00 Fair CLR 77.9 69.8 76% 80 29.82 0.0
02 22:55 SE 6 10.00 Fair CLR 78.8 70 74% 81 29.82 0.0
02 22:35 SE 6 10.00 Fair CLR 79.7 70.9 75% 83 29.82 0.0
02 22:15 SE 6 10.00 Partly Cloudy SCT100 80.8 71.1 72% 85 29.82 0.0
02 21:55 SE 6 10.00 Mostly Cloudy BKN100 81.5 71.1 71% 86 29.82 0.0
02 21:35 SE 6 10.00 Mostly Cloudy BKN100 82.2 71.2 69% 87 29.82 0.0
02 21:15 E 5 10.00 Partly Cloudy SCT100 80.8 71.4 73% 85 29.82 0.0
02 20:55 Calm 10.00 Partly Cloudy SCT100 81.3 72.1 74% 86 29.81 0.0
02 20:35 Calm 10.00 Partly Cloudy SCT100 80.8 72.9 77% 85 29.81 0.0
02 20:15 E 3 10.00 Fair CLR 83.1 72.3 70% 89 29.81 0.0
02 19:55 E 3 10.00 Fair CLR 86 71.6 62% 92 29.81 0.0
02 19:35 SE 3 10.00 Fair CLR 85.3 73.8 69% 93 29.81 0.0
02 19:15 SE 5 10.00 Fair CLR 87.1 74.5 66% 96 29.82 0.0
02 18:55 SE 6 10.00 Fair CLR 88.7 73 93.4 88.7 60% 97 29.82 0.0
02 18:35 S 6 10.00 Fair CLR 90.1 71.6 55% 97 29.82 0.0
02 18:15 S 7 10.00 Fair CLR 91 70.5 51% 97 29.82 0.0
02 17:55 S 8 10.00 Fair CLR 91.4 70 50% 97 29.82 0.0
02 17:35 S 9 10.00 Fair CLR 91.6 70.7 51% 98 29.83 0.0
02 17:15 S 9 10.00 Fair CLR 92.3 69.3 47% 98 29.83 0.0
02 16:55 S 13 10.00 Fair CLR 91.9 70.3 49% 98 29.84 0.0
02 16:35 S 13 10.00 Fair CLR 92.1 70.7 50% 99 29.84 0.0
02 16:15 S 10 10.00 Fair CLR 93.2 68.5 45% 98 29.84 0.0
02 15:55 S 9 10.00 Fair CLR 92.3 69.8 48% 98 29.85 0.0
02 15:35 S 10 10.00 Fair CLR 92.7 68.5 45% 97 29.86 0.0
02 15:15 S 12 10.00 Fair CLR 93.4 69.6 46% 99 29.86 0.0
02 14:55 S 7 10.00 Fair CLR 91.9 68.5 46% 97 29.86 0.0
02 14:35 S 8 10.00 Fair CLR 90.9 69.6 50% 96 29.86 0.0
02 14:15 SW 8 10.00 Fair CLR 92.1 68.5 46% 97 29.86 0.0
02 13:55 SW 13 10.00 Fair CLR 91.6 66.7 44% 95 29.87 0.0
02 13:35 SW 9 10.00 Fair CLR 91.2 67.1 45% 95 29.87 0.0
02 13:15 SW 8 10.00 Fair CLR 90.3 67.6 47% 94 29.88 0.0
02 12:55 SW 8 10.00 Fair CLR 89.6 67.6 89.6 68.4 48% 93 29.88 0.0
02 12:35 SW 10 10.00 Fair CLR 88.7 67.5 50% 92 29.88 0.0
02 12:15 SW 7 10.00 Fair CLR 88 68.5 53% 92 29.88 0.0
02 11:55 SW 6 10.00 Fair CLR 86 69.3 57% 90 29.88 0.0
02 11:35 S 6 10.00 Fair CLR 84.4 68 58% 88 29.89 0.0
02 11:15 SW 7 10.00 Fair CLR 83.8 66.6 56% 86 29.89 0.0
02 10:55 S 9 10.00 Fair CLR 82.6 67.6 61% 85 29.89 0.0
02 10:35 W 6 10.00 Fair CLR 82.8 66 57% 85 29.89 0.0
02 10:15 SW 3 10.00 Fair CLR 80.8 65.5 60% 83 29.88 0.0
02 09:55 Calm 10.00 Fair CLR 78.4 65.3 64% 80 29.88 0.0
02 09:35 Calm 10.00 Fair CLR 77.2 65.7 68% 79 29.89 0.0
02 09:15 Calm 10.00 Fair CLR 75.2 64.8 70% 77 29.89 0.0
02 08:55 S 6 10.00 Fair CLR 74.3 64.6 72% 29.89 0.0
02 08:35 S 3 10.00 Fair CLR 72 64.6 78% 29.89 0.0
02 08:15 SE 3 10.00 Fair CLR 69.8 63.9 82% 29.89 0.0
02 07:55 SE 5 10.00 Fair CLR 69.3 63.1 81% 29.89 0.0
02 07:35 SE 6 10.00 Fair CLR 69.1 63 81% 29.88 0.0
02 07:15 SE 3 10.00 Fair CLR 68.7 63.1 82% 29.87 0.0
02 06:55 SE 5 10.00 Fair CLR 69.6 63.1 75.2 68.2 80% 29.87 0.0 0.01
02 06:35 SE 5 10.00 Partly Cloudy SCT120 70.7 63 77% 29.87 0.0
02 06:15 S 8 10.00 Mostly Cloudy BKN110 73 62.8 70% 29.87 0.0
02 05:55 S 3 10.00 Partly Cloudy SCT110 74.1 62.6 67% 29.88 0.0 0.01
02 05:35 NW 10 G 21 10.00 Mostly Cloudy BKN110 71.8 64.6 78% 29.89 0.0 0.01
02 05:15 SE 3 10.00 Light Rain SCT075 SCT100 BKN120 70.9 65.5 83% 29.87 0.0 0.01
02 04:55 SE 5 7.00 Partly Cloudy SCT120 68.9 65.5 89% 29.89 0.0
02 04:35 Calm 10.00 Thunderstorm in Vicinity CLR 68.4 65.3 90% 29.9 0.0
02 04:15 SE 5 10.00 Fair CLR 69.1 64.9 87% 29.89 0.0
02 03:55 SE 5 10.00 Fair CLR 69.4 65.3 87% 29.89 0.0
02 03:35 SE 3 10.00 Fair CLR 69.4 65.3 87% 29.89 0.0
02 03:15 SE 5 10.00 Fair CLR 70.7 65.5 84% 29.89 0.0
02 02:55 Calm 10.00 Fair CLR 71.4 65.7 82% 29.9 0.0
02 02:35 SE 7 10.00 Partly Cloudy SCT120 71.4 65.7 82% 29.9 0.0
02 02:15 Calm 10.00 Fair CLR 71.4 65.5 82% 29.9 0.0
02 01:55 Calm 10.00 Partly Cloudy SCT120 71.6 65.7 82% 29.9 0.0
02 01:35 Calm 10.00 Fair CLR 72.9 65.3 77% 29.9 0.0
02 01:15 NE 13 G 22 10.00 Thunderstorm in Vicinity CLR 73.8 64.8 74% 29.9 0.0
02 00:55 E 12 10.00 Partly Cloudy SCT110 74.8 66.2 86.2 73.4 75% 29.9 0.0
02 00:35 NE 8 10.00 Thunderstorm in Vicinity BKN110 74.8 67.1 77% 29.91 0.0
02 00:15 N 12 10.00 Mostly Cloudy BKN110 73.6 67.1 80% 29.92 0.0
01 23:55 N 6 10.00 Mostly Cloudy BKN110 73.8 67.5 81% 29.9 0.0
01 23:35 Calm 10.00 Thunderstorm SCT120 73.6 67.3 81% 29.89 0.0
01 23:15 SE 7 G 17 10.00 Thunderstorm in Vicinity CLR 74.3 66.7 77% 29.89 0.0
01 22:55 E 10 G 16 10.00 Fair CLR 75.4 69.6 82% 76 29.89 0.0
01 22:35 NE 10 G 16 10.00 Fair CLR 77.5 72 83% 79 29.9 0.0
01 22:15 NE 10 G 16 10.00 Partly Cloudy SCT110 79.2 73 82% 83 29.91 0.0
01 21:55 NE 12 10.00 Partly Cloudy SCT120 79.2 72.1 79% 82 29.9 0.0
01 21:35 NE 7 10.00 Fair CLR 78.6 71.6 79% 81 29.89 0.0
01 21:15 Calm 10.00 Fair CLR 78.4 72.7 83% 81 29.88 0.0
01 20:55 Calm 10.00 Fair CLR 79.3 72.5 80% 83 29.88 0.0
01 20:35 E 5 10.00 Fair CLR 80.1 72.9 79% 84 29.86 0.0
01 20:15 E 5 10.00 Fair CLR 80.4 72.5 77% 85 29.86 0.0
01 19:55 E 3 10.00 Fair CLR 81.9 72.5 73% 87 29.87 0.0
01 19:35 Calm 7.00 Fair CLR 84.6 73 68% 91 29.88 0.0
01 19:15 Calm 10.00 Fair CLR 85.5 73 66% 92 29.88 0.0
01 18:55 S 3 10.00 Fair CLR 86.2 73.2 91.4 86.2 65% 94 29.88 0.0
01 18:35 S 6 10.00 Fair CLR 87.3 71.8 60% 94 29.87 0.0
01 18:15 SE 6 10.00 Fair CLR 87.1 72 61% 94 29.87 0.0
01 17:55 SE 9 10.00 Fair CLR 88 71.6 58% 94 29.88 0.0
01 17:35 S 7 10.00 Fair CLR 88.3 71.8 58% 95 29.89 0.0
01 17:15 SE 6 10.00 Fair CLR 89.2 71.1 55% 95 29.89 0.0
01 16:55 SE 6 10.00 Fair CLR 89.8 70.3 53% 95 29.89 0.0
01 16:35 SE 8 10.00 Fair CLR 89.8 71.6 55% 97 29.9 0.0
01 16:15 SE 5 10.00 Fair CLR 90.1 71.6 55% 97 29.9 0.0
01 15:55 SE 8 10.00 Partly Cloudy SCT041 90.1 71.4 54% 97 29.91 0.0
01 15:35 SE 7 10.00 Partly Cloudy SCT041 91.4 70.5 51% 98 29.92 0.0
01 15:15 E 6 10.00 Partly Cloudy SCT041 90.1 69.8 51% 95 29.93 0.0
01 14:55 E 8 10.00 Fair CLR 91 69.4 49% 96 29.93 0.0
01 14:35 E 9 10.00 Fair CLR 90.5 70.3 52% 96 29.94 0.0
01 14:15 E 9 10.00 Fair CLR 90.7 70.9 52% 97 29.95 0.0
01 13:55 E 7 10.00 Fair CLR 90.1 71.6 55% 97 29.94 0.0
01 13:35 E 9 10.00 Fair CLR 89.1 71.4 56% 96 29.95 0.0
01 13:15 E 9 10.00 Fair CLR 88.7 71.4 57% 95 29.95 0.0
01 12:55 E 7 10.00 Fair CLR 87.6 72.3 87.6 68.2 61% 95 29.95 0.0
01 12:35 E 8 10.00 Fair CLR 86.9 72.7 63% 94 29.96 0.0
01 12:15 E 8 10.00 Fair CLR 85.5 71.8 64% 91 29.96 0.0
01 11:55 E 9 10.00 Fair CLR 85.1 71.6 64% 91 29.96 0.0
01 11:35 E 9 10.00 Fair CLR 85.1 72.9 67% 92 29.96 0.0
01 11:15 NE 7 10.00 Fair CLR 82.9 72.5 71% 88 29.96 0.0
01 10:55 NE 9 10.00 Fair CLR 82.9 72 70% 88 29.96 0.0
01 10:35 N 8 10.00 Fair CLR 81.9 72.5 73% 87 29.96 0.0
01 10:15 N 6 10.00 Fair CLR 81 71.6 73% 85 29.96 0.0
01 09:55 N 6 10.00 Fair CLR 80.2 71.6 75% 84 29.97 0.0
01 09:35 NW 6 10.00 Fair CLR 76.6 71.1 83% 78 29.98 0.0
01 09:15 N 3 10.00 Fair CLR 75 70.3 85% 75 29.98 0.0
01 08:55 N 5 10.00 Fair CLR 77 70.3 80% 79 29.99 0.0
01 08:35 N 5 10.00 Fair CLR 73.9 69.6 86% 29.98 0.0
01 08:15 N 6 10.00 Fair CLR 71.1 68.2 91% 29.99 0.0
01 07:55 NW 3 7.00 Fair CLR 69.8 67.5 92% 29.98 0.0
01 07:35 NW 6 7.00 Partly Cloudy SCT095 68.9 67.1 94% 29.97 0.0
01 07:15 NW 6 7.00 Fair CLR 68.4 66.4 93% 29.97 0.0
01 06:55 W 3 10.00 Fair CLR 68.4 66.4 70.7 65.8 93% 29.96 0.0
01 06:35 NW 3 10.00 Fair CLR 67.3 65.3 93% 29.95 0.0
01 06:15 NW 5 10.00 Fair CLR 67.1 65.3 94% 29.94 0.0
01 05:55 Calm 10.00 Fair CLR 66.6 64.6 93% 29.94 0.0
01 05:15 Calm 10.00 Fair CLR 66.2 64.4 94% 29.95 0.0
01 04:55 Calm 10.00 Fair CLR 66.6 64.8 94% 29.95 0.0
01 04:35 Calm 7.00 Fair CLR 66.9 65.3 95% 29.96 0.0
01 04:15 Calm 7.00 Fair CLR 67.8 66 94% 29.96 0.0
01 03:55 Calm 10.00 Fair CLR 68.4 66.4 93% 29.96 0.0
01 03:35 Calm 10.00 Fair CLR 68.9 67.5 95% 29.97 0.0
01 03:15 Calm 7.00 Fair CLR 69.3 67.8 95% 29.96 0.0
01 02:55 Calm 7.00 Fair CLR 69.8 68 94% 29.96 0.0
01 02:35 Calm 10.00 Fair CLR 70 68 93% 29.96 0.0
01 02:15 Calm 10.00 Fair CLR 70.3 68.2 93% 29.96 0.0
01 01:55 Calm 10.00 Fair CLR 70.5 68 92% 29.97 0.0
01 01:35 Calm 10.00 Fair CLR 70.7 68.2 92% 29.98 0.0
01 01:15 Calm 10.00 Fair CLR 70.7 68.2 92% 29.98 0.0
01 00:55 Calm 10.00 Fair CLR 71.1 68.2 85.1 70.7 91% 29.98 0.0
01 00:35 Calm 10.00 Fair CLR 71.1 68.4 91% 29.98 0.0
01 00:15 Calm 10.00 Fair CLR 71.2 68.4 91% 29.98 0.0
31 23:55 Calm 10.00 Fair CLR 71.8 68.9 91% 29.98 0.0
31 23:35 Calm 10.00 Fair CLR 70.7 68.2 92% 29.99 0.0
31 23:15 Calm 10.00 Fair CLR 71.6 68.2 89% 29.99 0.0
Date Time (cdt) Wind (mph) Vis. (mi.) Weather Sky Cond. Air Dwpt Max. Min. Relative Humidity Wind Chill (°F) Heat Index (°F) altimeter (in) sea level (mb) 1 hr 3 hr 6 hr
6 hour
Temperature (ºF) Pressure Precipitation (in)